Time;durP1;ratioP1;P1;durP2;ratioP2;P2;SDS_P1;SDS_P2;PMS_P1;PMS_P2;Temp;Humidity;BMP_temperature;BMP_pressure;BME280_temperature;BME280_humidity;BME280_pressure;Samples;Min_cycle;Max_cycle;Signal;HPM_P1;HPM_P2
2024/01/16 00:00:56;;;;;;;32.17;23.40;;;;;21.30;99697.00;;;;2048935;28;20311;-56
2024/01/16 00:01:56;;;;;;;39.60;24.53;;;;;21.30;99699.00;;;;2038240;28;20216;-57
2024/01/16 00:02:56;;;;;;;34.07;23.90;;;;;21.30;99697.00;;;;2035456;28;20260;-56
2024/01/16 00:03:57;;;;;;;33.00;20.80;;;;;21.30;99693.00;;;;2046220;28;20576;-56
2024/01/16 00:04:57;;;;;;;37.83;25.70;;;;;21.30;99695.00;;;;2048589;28;20589;-55
2024/01/16 00:05:58;;;;;;;39.67;26.60;;;;;21.30;99700.00;;;;2045514;28;20689;-57
2024/01/16 00:06:58;;;;;;;40.17;26.80;;;;;21.30;99698.00;;;;2047969;28;20739;-57
2024/01/16 00:07:59;;;;;;;48.53;26.13;;;;;21.40;99696.00;;;;2044404;28;20231;-57
2024/01/16 00:09:00;;;;;;;36.55;22.63;;;;;21.40;99699.00;;;;2052627;28;20218;-56
2024/01/16 00:10:00;;;;;;;48.07;23.70;;;;;21.40;99703.00;;;;2043131;28;20792;-54
2024/01/16 00:11:02;;;;;;;35.50;21.60;;;;;21.30;99705.00;;;;2046612;28;20271;-54
2024/01/16 00:12:03;;;;;;;35.88;20.73;;;;;21.30;99702.00;;;;2047518;28;20310;-58
2024/01/16 00:13:04;;;;;;;34.22;20.55;;;;;21.30;99700.00;;;;2029306;28;20327;-59
2024/01/16 00:14:04;;;;;;;32.83;21.07;;;;;21.30;99704.00;;;;2045930;28;20217;-59
2024/01/16 00:15:05;;;;;;;28.70;19.53;;;;;21.30;99707.00;;;;2046931;28;20240;-58
2024/01/16 00:16:06;;;;;;;29.05;19.10;;;;;21.30;99715.00;;;;2048101;28;20243;-58
2024/01/16 00:17:06;;;;;;;29.13;19.83;;;;;21.20;99716.00;;;;2045603;28;20563;-58
2024/01/16 00:18:08;;;;;;;41.23;19.63;;;;;21.20;99710.00;;;;2032154;28;20245;-58
2024/01/16 00:19:08;;;;;;;29.55;18.02;;;;;21.20;99710.00;;;;2047618;28;20216;-59
2024/01/16 00:20:09;;;;;;;35.30;17.47;;;;;21.20;99710.00;;;;2047295;28;20226;-57
2024/01/16 00:21:09;;;;;;;24.33;16.77;;;;;21.20;99713.00;;;;2048871;28;20220;-54
2024/01/16 00:22:09;;;;;;;26.10;18.57;;;;;21.20;99715.00;;;;2053920;28;21177;-56
2024/01/16 00:23:10;;;;;;;31.93;17.90;;;;;21.20;99709.00;;;;2041015;28;21017;-58
2024/01/16 00:24:10;;;;;;;25.30;15.43;;;;;21.20;99710.00;;;;2051591;28;20700;-57
2024/01/16 00:25:11;;;;;;;26.90;16.60;;;;;21.20;99710.00;;;;2057569;28;20221;-57
2024/01/16 00:26:22;;;;;;;28.02;17.17;;;;;21.20;99714.00;;;;2050836;28;20290;-58
2024/01/16 00:27:22;;;;;;;25.27;16.15;;;;;21.20;99716.00;;;;2049893;28;20220;-58
2024/01/16 00:28:22;;;;;;;27.90;17.00;;;;;21.20;99704.00;;;;2037037;28;20219;-58
2024/01/16 00:29:23;;;;;;;24.73;16.80;;;;;21.20;99720.00;;;;2053062;28;20222;-58
2024/01/16 00:30:23;;;;;;;25.73;16.87;;;;;21.20;99716.00;;;;2049069;28;20251;-56
2024/01/16 00:31:24;;;;;;;26.30;17.10;;;;;21.20;99717.00;;;;2056264;28;20465;-58
2024/01/16 00:32:24;;;;;;;20.93;14.70;;;;;21.20;99719.00;;;;2062044;28;20231;-59
2024/01/16 00:33:27;;;;;;;23.47;15.27;;;;;21.20;99716.00;;;;2034189;28;20220;-58
2024/01/16 00:34:27;;;;;;;24.52;15.15;;;;;21.20;99714.00;;;;2046639;28;20718;-58
2024/01/16 00:35:27;;;;;;;22.57;15.13;;;;;21.20;99705.00;;;;2045171;28;20236;-55
2024/01/16 00:36:28;;;;;;;21.87;15.40;;;;;21.10;99710.00;;;;2045973;28;20320;-54
2024/01/16 00:37:28;;;;;;;21.67;14.30;;;;;21.10;99713.00;;;;2049769;28;20228;-57
2024/01/16 00:38:28;;;;;;;21.33;13.57;;;;;21.10;99706.00;;;;2044281;28;20232;-58
2024/01/16 00:39:29;;;;;;;21.40;14.77;;;;;21.10;99717.00;;;;2053920;28;20262;-57
2024/01/16 00:40:29;;;;;;;23.07;14.43;;;;;21.10;99708.00;;;;2052501;28;20262;-58
2024/01/16 00:41:29;;;;;;;22.70;13.27;;;;;21.10;99709.00;;;;2049027;28;20227;-55
2024/01/16 00:42:31;;;;;;;27.87;14.57;;;;;21.10;99713.00;;;;2046790;28;20283;-57
2024/01/16 00:43:31;;;;;;;23.13;13.65;;;;;21.10;99708.00;;;;2046709;28;20238;-62
2024/01/16 00:44:32;;;;;;;22.90;14.90;;;;;21.10;99710.00;;;;2045602;28;20220;-58
2024/01/16 00:45:32;;;;;;;23.50;12.97;;;;;21.10;99711.00;;;;2049621;28;20223;-55
2024/01/16 00:46:32;;;;;;;20.57;13.97;;;;;21.10;99713.00;;;;2050083;28;20223;-57
2024/01/16 00:47:33;;;;;;;17.30;12.07;;;;;21.10;99710.00;;;;2035701;28;20255;-58
2024/01/16 00:48:33;;;;;;;19.93;12.30;;;;;21.10;99710.00;;;;2040943;28;20221;-59
2024/01/16 00:49:35;;;;;;;18.77;12.33;;;;;21.10;99714.00;;;;2044796;28;20224;-58
2024/01/16 00:50:35;;;;;;;19.05;12.52;;;;;21.10;99722.00;;;;2040879;29;20221;-57
2024/01/16 00:51:36;;;;;;;16.57;11.77;;;;;21.10;99727.00;;;;2042540;28;20242;-58
2024/01/16 00:52:36;;;;;;;16.97;11.20;;;;;21.10;99726.00;;;;2038735;28;20219;-57
2024/01/16 00:53:40;;;;;;;16.20;11.53;;;;;21.10;99730.00;;;;2050394;28;20306;-58
2024/01/16 00:54:41;;;;;;;19.67;12.48;;;;;21.10;99724.00;;;;2045524;28;20216;-54
2024/01/16 00:55:42;;;;;;;18.43;12.23;;;;;21.10;99728.00;;;;2045411;28;20697;-58
2024/01/16 00:56:42;;;;;;;21.93;12.53;;;;;21.00;99736.00;;;;2049489;28;20463;-57
2024/01/16 00:57:43;;;;;;;17.83;11.53;;;;;21.10;99730.00;;;;2043998;28;20629;-55
2024/01/16 00:58:43;;;;;;;22.70;13.50;;;;;21.10;99734.00;;;;2052709;28;20224;-57
2024/01/16 00:59:43;;;;;;;18.93;11.10;;;;;21.00;99736.00;;;;2053518;28;20243;-56
2024/01/16 01:00:44;;;;;;;16.60;11.03;;;;;21.00;99735.00;;;;2053481;28;20659;-56
2024/01/16 01:01:44;;;;;;;16.97;11.20;;;;;21.00;99730.00;;;;2050984;28;20942;-57
2024/01/16 01:02:44;;;;;;;15.23;11.47;;;;;21.00;99732.00;;;;2036673;28;20216;-57
2024/01/16 01:03:45;;;;;;;15.97;10.50;;;;;21.00;99728.00;;;;2045788;28;20220;-56
2024/01/16 01:04:45;;;;;;;16.10;9.50;;;;;21.00;99729.00;;;;2053470;28;20293;-54
2024/01/16 01:05:45;;;;;;;15.33;10.30;;;;;21.00;99729.00;;;;2051619;28;20216;-56
2024/01/16 01:06:46;;;;;;;23.13;11.63;;;;;21.00;99724.00;;;;2053382;28;20715;-56
2024/01/16 01:07:46;;;;;;;15.20;10.03;;;;;21.00;99734.00;;;;2037689;28;20692;-57
2024/01/16 01:08:46;;;;;;;15.80;9.70;;;;;21.00;99731.00;;;;2047499;28;20220;-58
2024/01/16 01:09:47;;;;;;;15.60;9.97;;;;;21.00;99739.00;;;;2044076;28;20853;-58
2024/01/16 01:10:47;;;;;;;13.47;9.87;;;;;21.00;99734.00;;;;2051119;28;20227;-56
2024/01/16 01:11:48;;;;;;;14.90;9.70;;;;;21.00;99736.00;;;;2053827;28;20223;-57
2024/01/16 01:12:48;;;;;;;15.93;9.20;;;;;21.00;99733.00;;;;2040829;28;20254;-58
2024/01/16 01:13:49;;;;;;;13.40;9.10;;;;;21.00;99738.00;;;;2046947;28;20225;-57
2024/01/16 01:14:49;;;;;;;13.50;9.50;;;;;21.00;99739.00;;;;2045870;28;20220;-57
2024/01/16 01:15:49;;;;;;;14.47;9.37;;;;;21.00;99744.00;;;;2051661;28;20329;-55
2024/01/16 01:16:50;;;;;;;14.83;9.30;;;;;21.00;99751.00;;;;2048609;28;20220;-54
2024/01/16 01:17:50;;;;;;;17.37;8.80;;;;;21.00;99745.00;;;;2038732;28;20234;-55
2024/01/16 01:18:50;;;;;;;15.07;9.67;;;;;21.00;99739.00;;;;2048041;28;20228;-57
2024/01/16 01:19:51;;;;;;;13.33;8.60;;;;;21.00;99744.00;;;;2052927;28;20306;-55
2024/01/16 01:20:51;;;;;;;13.93;8.70;;;;;21.00;99738.00;;;;2053568;28;20243;-57
2024/01/16 01:21:51;;;;;;;13.60;8.43;;;;;21.00;99742.00;;;;2048470;28;20287;-58
2024/01/16 01:22:52;;;;;;;13.70;9.60;;;;;20.90;99747.00;;;;2041887;28;20219;-57
2024/01/16 01:23:52;;;;;;;14.23;8.90;;;;;21.00;99750.00;;;;2042022;28;20227;-55
2024/01/16 01:24:52;;;;;;;13.63;8.70;;;;;21.00;99752.00;;;;2050536;28;20219;-57
2024/01/16 01:25:53;;;;;;;13.87;8.30;;;;;20.90;99755.00;;;;2042656;28;21440;-57
2024/01/16 01:26:53;;;;;;;14.07;8.87;;;;;20.90;99756.00;;;;2052574;28;20319;-58
2024/01/16 01:27:53;;;;;;;13.47;8.13;;;;;20.90;99753.00;;;;2041437;28;20274;-58
2024/01/16 01:28:54;;;;;;;11.83;7.73;;;;;20.90;99751.00;;;;2047122;28;20235;-57
2024/01/16 01:29:54;;;;;;;16.57;8.67;;;;;20.90;99752.00;;;;2059507;28;20247;-57
2024/01/16 01:30:54;;;;;;;10.40;7.67;;;;;20.90;99752.00;;;;2049302;28;20230;-56
2024/01/16 01:31:55;;;;;;;14.40;8.70;;;;;20.90;99763.00;;;;2046165;28;20216;-54
2024/01/16 01:32:55;;;;;;;12.57;7.63;;;;;20.90;99761.00;;;;2034274;28;20235;-56
2024/01/16 01:33:56;;;;;;;11.77;7.97;;;;;20.90;99760.00;;;;2048453;28;20269;-56
2024/01/16 01:34:56;;;;;;;11.20;7.80;;;;;20.90;99757.00;;;;2052548;28;20318;-55
2024/01/16 01:35:57;;;;;;;10.67;6.90;;;;;20.90;99757.00;;;;2052293;28;20281;-55
2024/01/16 01:36:57;;;;;;;9.83;7.00;;;;;20.80;99752.00;;;;2053575;28;20226;-58
2024/01/16 01:37:58;;;;;;;13.03;8.27;;;;;20.80;99754.00;;;;2034235;28;20220;-57
2024/01/16 01:38:58;;;;;;;13.63;7.87;;;;;20.90;99747.00;;;;2038022;29;20239;-58
2024/01/16 01:39:59;;;;;;;9.07;6.53;;;;;20.90;99756.00;;;;2047982;28;20223;-55
2024/01/16 01:40:59;;;;;;;9.97;6.80;;;;;20.80;99754.00;;;;2046960;28;20227;-56
2024/01/16 01:41:59;;;;;;;10.50;6.67;;;;;20.80;99761.00;;;;2045134;28;20243;-58
2024/01/16 01:43:22;;;;;;;11.53;6.30;;;;;20.80;99752.00;;;;2040487;28;20250;-58
2024/01/16 01:44:24;;;;;;;12.75;7.25;;;;;20.80;99754.00;;;;2049908;28;20215;-58
2024/01/16 01:45:25;;;;;;;12.50;7.18;;;;;20.90;99760.00;;;;2049329;28;20208;-57
2024/01/16 01:46:25;;;;;;;10.83;6.13;;;;;20.90;99749.00;;;;2045610;28;20259;-58
2024/01/16 01:47:25;;;;;;;10.67;6.50;;;;;20.90;99759.00;;;;2047504;28;20239;-54
2024/01/16 01:48:26;;;;;;;9.00;6.63;;;;;20.80;99762.00;;;;2042719;28;20223;-56
2024/01/16 01:49:26;;;;;;;9.60;6.33;;;;;20.80;99766.00;;;;2047302;28;20239;-58
2024/01/16 01:50:26;;;;;;;9.77;5.77;;;;;20.80;99759.00;;;;2036475;29;20308;-58
2024/01/16 01:51:27;;;;;;;8.50;6.40;;;;;20.80;99765.00;;;;2044519;29;20231;-57
2024/01/16 01:52:27;;;;;;;9.87;6.13;;;;;20.80;99740.00;;;;2046897;28;20430;-57
2024/01/16 01:53:28;;;;;;;9.80;6.50;;;;;20.80;99769.00;;;;2033118;28;20239;-55
2024/01/16 01:54:28;;;;;;;8.80;5.77;;;;;20.80;99767.00;;;;2039944;28;20227;-57
2024/01/16 01:55:29;;;;;;;9.20;5.70;;;;;20.80;99777.00;;;;2040945;29;20488;-58
2024/01/16 01:56:29;;;;;;;9.03;5.67;;;;;20.80;99760.00;;;;2044882;28;20311;-54
2024/01/16 01:57:29;;;;;;;6.60;4.97;;;;;20.80;99760.00;;;;2048316;28;20235;-62
2024/01/16 01:58:30;;;;;;;9.93;6.00;;;;;20.80;99761.00;;;;2037314;28;20295;-57
2024/01/16 01:59:30;;;;;;;9.00;5.53;;;;;20.80;99765.00;;;;2042201;28;20244;-54
2024/01/16 02:00:31;;;;;;;8.50;5.73;;;;;20.80;99762.00;;;;2050596;28;20223;-57
2024/01/16 02:01:33;;;;;;;10.07;5.67;;;;;20.80;99764.00;;;;2053752;28;20327;-59
2024/01/16 02:02:33;;;;;;;9.02;6.38;;;;;20.80;99766.00;;;;2049913;28;20301;-58
2024/01/16 02:03:35;;;;;;;7.20;5.33;;;;;20.80;99761.00;;;;2050787;28;20226;-58
2024/01/16 02:04:36;;;;;;;8.98;5.13;;;;;20.70;99784.00;;;;2047344;28;20200;-58
2024/01/16 02:05:36;;;;;;;9.00;5.00;;;;;20.70;99759.00;;;;2046135;28;20720;-58
2024/01/16 02:06:36;;;;;;;8.57;5.50;;;;;20.70;99764.00;;;;2043737;28;20729;-56
2024/01/16 02:07:37;;;;;;;7.37;4.70;;;;;20.80;99760.00;;;;2042886;28;20215;-58
2024/01/16 02:08:38;;;;;;;9.53;5.50;;;;;20.80;99766.00;;;;2057573;28;20237;-56
2024/01/16 02:09:38;;;;;;;8.20;6.13;;;;;20.30;99761.00;;;;2059067;28;20847;-55
2024/01/16 02:10:39;;;;;;;7.90;4.67;;;;;20.80;99766.00;;;;2048838;28;20227;-56
2024/01/16 02:11:40;;;;;;;8.83;5.53;;;;;20.80;99522.00;;;;2041769;28;20228;-55
2024/01/16 02:12:40;;;;;;;6.05;4.63;;;;;20.80;99765.00;;;;2035703;28;20684;-56
2024/01/16 02:13:41;;;;;;;10.03;5.43;;;;;20.70;99764.00;;;;2049228;28;20228;-54
2024/01/16 02:14:42;;;;;;;6.75;4.38;;;;;20.80;99771.00;;;;2048624;28;20216;-57
2024/01/16 02:15:42;;;;;;;7.10;4.77;;;;;20.70;99762.00;;;;2052190;28;21429;-58
2024/01/16 02:16:44;;;;;;;6.90;4.13;;;;;20.70;99771.00;;;;2047795;28;20325;-58
2024/01/16 02:17:47;;;;;;;7.80;5.10;;;;;20.70;99760.00;;;;2039146;28;20208;-55
2024/01/16 02:18:47;;;;;;;9.23;5.38;;;;;20.80;99771.00;;;;2044467;28;20290;-55
2024/01/16 02:19:48;;;;;;;6.93;4.53;;;;;20.70;99762.00;;;;2053325;28;20218;-57
2024/01/16 02:20:48;;;;;;;6.67;4.67;;;;;20.70;99775.00;;;;2053381;28;20900;-58
2024/01/16 02:21:49;;;;;;;6.93;4.60;;;;;20.70;99775.00;;;;2041713;29;20702;-58
2024/01/16 02:22:49;;;;;;;6.37;4.20;;;;;20.70;99792.00;;;;2024666;28;21125;-54
2024/01/16 02:23:49;;;;;;;6.70;4.47;;;;;20.70;99772.00;;;;2030778;29;20837;-55
2024/01/16 02:24:50;;;;;;;6.30;4.77;;;;;20.70;99778.00;;;;2040613;28;20216;-58
2024/01/16 02:25:50;;;;;;;8.77;4.77;;;;;20.70;99775.00;;;;2045731;28;20238;-58
2024/01/16 02:26:50;;;;;;;7.27;3.97;;;;;20.70;99772.00;;;;2039289;28;20294;-58
2024/01/16 02:27:50;;;;;;;5.80;4.00;;;;;20.70;99782.00;;;;2034717;28;20262;-58
2024/01/16 02:28:52;;;;;;;6.87;4.83;;;;;20.70;99777.00;;;;2049041;28;20223;-55
2024/01/16 02:29:52;;;;;;;7.00;4.65;;;;;20.70;99778.00;;;;2042217;28;20296;-57
2024/01/16 02:30:53;;;;;;;7.73;4.03;;;;;20.70;99772.00;;;;2056300;28;20210;-58
2024/01/16 02:31:53;;;;;;;7.67;4.60;;;;;20.70;99777.00;;;;2047783;28;20311;-57
2024/01/16 02:32:53;;;;;;;6.00;4.23;;;;;20.70;99763.00;;;;2035920;28;20662;-59
2024/01/16 02:33:54;;;;;;;5.93;3.80;;;;;20.70;99765.00;;;;2047354;28;20279;-55
2024/01/16 02:34:54;;;;;;;5.60;3.97;;;;;20.70;99767.00;;;;2047105;28;20240;-57
2024/01/16 02:35:54;;;;;;;5.27;3.37;;;;;20.70;99765.00;;;;2050683;28;20223;-58
2024/01/16 02:36:55;;;;;;;8.70;3.70;;;;;20.70;99773.00;;;;2046292;28;20564;-58
2024/01/16 02:37:55;;;;;;;6.23;3.67;;;;;20.70;99769.00;;;;2036911;28;20783;-56
2024/01/16 02:38:55;;;;;;;6.10;3.53;;;;;20.70;99769.00;;;;2050833;28;20234;-59
2024/01/16 02:39:56;;;;;;;5.87;3.00;;;;;20.70;99764.00;;;;2040356;28;20221;-56
2024/01/16 02:40:56;;;;;;;6.50;4.00;;;;;20.70;99769.00;;;;2049737;28;20234;-54
2024/01/16 02:41:56;;;;;;;5.80;3.57;;;;;20.70;99769.00;;;;2049581;28;20593;-57
2024/01/16 02:42:57;;;;;;;5.60;3.73;;;;;20.70;99770.00;;;;2038234;28;20330;-57
2024/01/16 02:43:57;;;;;;;6.73;4.13;;;;;20.60;99768.00;;;;2048049;28;20358;-58
2024/01/16 02:44:57;;;;;;;5.87;3.70;;;;;20.70;99776.00;;;;2057260;28;20351;-57
2024/01/16 02:45:58;;;;;;;6.30;4.13;;;;;20.60;99770.00;;;;2045857;28;20255;-57
2024/01/16 02:46:58;;;;;;;6.90;3.50;;;;;20.60;99772.00;;;;2046897;28;20224;-58
2024/01/16 02:47:58;;;;;;;6.63;3.93;;;;;20.60;99777.00;;;;2043492;28;20232;-55
2024/01/16 02:48:59;;;;;;;4.60;3.00;;;;;20.60;99768.00;;;;2043292;28;20224;-56
2024/01/16 02:49:59;;;;;;;6.37;3.97;;;;;20.60;99775.00;;;;2059042;28;20246;-55
2024/01/16 02:51:00;;;;;;;5.27;3.40;;;;;20.60;99776.00;;;;2050947;28;21056;-57
2024/01/16 02:52:00;;;;;;;5.20;3.33;;;;;20.60;99769.00;;;;2047714;28;20240;-57
2024/01/16 02:53:00;;;;;;;5.00;3.40;;;;;20.60;99773.00;;;;2039118;28;20930;-56
2024/01/16 02:54:01;;;;;;;5.47;3.87;;;;;20.60;99764.00;;;;2052772;28;20266;-55
2024/01/16 02:55:01;;;;;;;4.53;3.20;;;;;20.60;99770.00;;;;2045877;28;20338;-57
2024/01/16 02:56:01;;;;;;;4.57;2.97;;;;;20.60;99762.00;;;;2048245;28;20240;-58
2024/01/16 02:57:02;;;;;;;5.13;3.00;;;;;20.60;99763.00;;;;2048925;28;20230;-59
2024/01/16 02:58:03;;;;;;;5.67;3.87;;;;;20.60;99759.00;;;;2044412;28;20721;-57
2024/01/16 02:59:03;;;;;;;6.97;3.70;;;;;20.60;99762.00;;;;2060322;28;20230;-57
2024/01/16 03:00:04;;;;;;;4.70;2.97;;;;;20.60;99768.00;;;;2052492;28;20487;-58
2024/01/16 03:01:04;;;;;;;5.40;3.13;;;;;20.60;99769.00;;;;2048952;28;20236;-57
2024/01/16 03:02:05;;;;;;;10.43;3.67;;;;;20.60;99769.00;;;;2044155;28;20464;-58
2024/01/16 03:03:05;;;;;;;5.83;3.40;;;;;20.60;99770.00;;;;2037486;28;20307;-54
2024/01/16 03:04:06;;;;;;;6.20;3.07;;;;;20.60;99761.00;;;;2052222;28;20373;-58
2024/01/16 03:05:06;;;;;;;4.60;3.00;;;;;20.60;99760.00;;;;2041328;28;20267;-58
2024/01/16 03:06:06;;;;;;;5.00;3.30;;;;;20.60;99760.00;;;;2048984;28;20232;-58
2024/01/16 03:07:07;;;;;;;5.17;2.83;;;;;20.60;99748.00;;;;2047257;28;20672;-57
2024/01/16 03:08:07;;;;;;;5.40;3.23;;;;;20.60;99759.00;;;;2036811;28;20234;-58
2024/01/16 03:09:07;;;;;;;5.00;3.17;;;;;20.60;99755.00;;;;2059507;28;20241;-55
2024/01/16 03:10:08;;;;;;;4.57;2.90;;;;;20.60;99752.00;;;;2050924;28;20698;-56
2024/01/16 03:11:08;;;;;;;5.10;2.77;;;;;20.60;99744.00;;;;2045209;28;20851;-57
2024/01/16 03:12:09;;;;;;;5.03;2.90;;;;;20.60;99750.00;;;;2047910;28;20223;-58
2024/01/16 03:13:09;;;;;;;5.30;2.80;;;;;19.90;99756.00;;;;2034136;28;20283;-59
2024/01/16 03:14:09;;;;;;;5.70;2.83;;;;;20.20;99758.00;;;;2057678;28;20317;-56
2024/01/16 03:15:10;;;;;;;4.63;2.80;;;;;20.50;99800.00;;;;2045148;28;20231;-55
2024/01/16 03:16:10;;;;;;;4.10;2.47;;;;;20.50;99760.00;;;;2052425;28;20235;-54
2024/01/16 03:17:11;;;;;;;5.83;3.67;;;;;20.50;99752.00;;;;2043628;28;20297;-55
2024/01/16 03:18:11;;;;;;;4.67;2.80;;;;;20.50;99758.00;;;;2034480;28;20216;-56
2024/01/16 03:19:12;;;;;;;5.80;3.27;;;;;20.50;99758.00;;;;2044098;28;20220;-58
2024/01/16 03:20:12;;;;;;;4.17;2.80;;;;;20.50;99762.00;;;;2048927;28;20223;-55
2024/01/16 03:21:13;;;;;;;4.87;2.87;;;;;20.50;99767.00;;;;2051988;28;20707;-57
2024/01/16 03:22:14;;;;;;;4.37;2.40;;;;;20.50;99752.00;;;;2048466;28;20269;-61
2024/01/16 03:23:14;;;;;;;4.40;2.60;;;;;20.50;99758.00;;;;2037786;28;20471;-61
2024/01/16 03:24:14;;;;;;;5.47;3.20;;;;;20.50;99755.00;;;;2043703;28;20251;-54
2024/01/16 03:25:16;;;;;;;6.77;3.07;;;;;20.50;99751.00;;;;2048922;28;20222;-57
2024/01/16 03:26:16;;;;;;;5.95;3.05;;;;;20.50;99617.00;;;;2045297;28;20224;-56
2024/01/16 03:27:17;;;;;;;4.50;2.70;;;;;20.50;99758.00;;;;2044994;28;20577;-55
2024/01/16 03:28:17;;;;;;;4.40;2.57;;;;;20.50;99759.00;;;;2038286;28;20573;-57
2024/01/16 03:29:17;;;;;;;5.60;3.30;;;;;20.50;99764.00;;;;2045198;28;20303;-59
2024/01/16 03:30:18;;;;;;;6.77;3.37;;;;;20.50;99756.00;;;;2049058;28;20580;-57
2024/01/16 03:31:21;;;;;;;4.60;2.87;;;;;20.50;99763.00;;;;2046394;28;20919;-58
2024/01/16 03:32:21;;;;;;;4.57;2.95;;;;;20.50;99763.00;;;;2042756;28;20217;-56
2024/01/16 03:33:21;;;;;;;4.93;2.60;;;;;20.50;99751.00;;;;2041989;28;20294;-58
2024/01/16 03:34:23;;;;;;;5.63;2.90;;;;;20.50;99765.00;;;;2058264;28;20211;-58
2024/01/16 03:35:23;;;;;;;3.83;2.40;;;;;20.50;99753.00;;;;2052690;28;20220;-57
2024/01/16 03:36:24;;;;;;;3.73;2.40;;;;;20.50;99754.00;;;;2047909;28;20559;-57
2024/01/16 03:37:24;;;;;;;4.57;2.73;;;;;20.50;99753.00;;;;2047252;28;20612;-58
2024/01/16 03:38:24;;;;;;;3.40;2.57;;;;;20.50;99757.00;;;;2039135;28;20216;-58
2024/01/16 03:39:25;;;;;;;4.87;3.00;;;;;20.50;99759.00;;;;2057174;28;20215;-58
2024/01/16 03:40:25;;;;;;;4.10;2.80;;;;;20.50;99760.00;;;;2047502;28;20562;-58
2024/01/16 03:41:25;;;;;;;4.80;2.80;;;;;20.50;99757.00;;;;2042903;28;20212;-55
2024/01/16 03:42:26;;;;;;;4.77;3.10;;;;;20.50;99754.00;;;;2046279;28;20228;-57
2024/01/16 03:43:26;;;;;;;4.00;2.53;;;;;20.50;99752.00;;;;2043368;28;20248;-58
2024/01/16 03:44:26;;;;;;;4.00;3.03;;;;;20.50;99761.00;;;;2057070;28;20699;-58
2024/01/16 03:45:27;;;;;;;4.60;2.60;;;;;20.50;99761.00;;;;2051886;28;20708;-57
2024/01/16 03:46:27;;;;;;;4.50;2.77;;;;;20.40;99755.00;;;;2050766;28;20704;-58
2024/01/16 03:47:27;;;;;;;4.30;2.83;;;;;20.40;99755.00;;;;2047389;28;20723;-58
2024/01/16 03:48:28;;;;;;;4.40;2.80;;;;;20.50;99761.00;;;;2033639;28;20681;-54
2024/01/16 03:49:28;;;;;;;4.17;2.77;;;;;20.50;99767.00;;;;2046565;28;20212;-57
2024/01/16 03:50:28;;;;;;;4.70;2.67;;;;;20.50;99774.00;;;;2048584;28;20215;-57
2024/01/16 03:51:29;;;;;;;4.33;2.50;;;;;20.40;99768.00;;;;2040944;28;20220;-56
2024/01/16 03:52:29;;;;;;;4.60;2.57;;;;;20.40;99767.00;;;;2049599;28;20215;-57
2024/01/16 03:53:29;;;;;;;4.03;2.60;;;;;20.40;99788.00;;;;2036355;28;20220;-54
2024/01/16 03:54:30;;;;;;;5.43;3.10;;;;;20.50;99768.00;;;;2049398;28;20758;-54
2024/01/16 03:55:31;;;;;;;3.50;2.60;;;;;20.50;99778.00;;;;2046954;28;20216;-55
2024/01/16 03:56:31;;;;;;;3.70;2.40;;;;;20.40;99771.00;;;;2050457;28;20216;-57
2024/01/16 03:57:31;;;;;;;3.50;2.10;;;;;20.40;99772.00;;;;2039729;28;20459;-60
2024/01/16 03:58:32;;;;;;;4.80;3.00;;;;;20.50;99771.00;;;;2048003;28;20291;-56
2024/01/16 03:59:32;;;;;;;3.90;2.97;;;;;20.40;99769.00;;;;2044122;28;20223;-57
2024/01/16 04:00:32;;;;;;;4.67;2.80;;;;;20.40;99779.00;;;;2049837;28;20243;-54
2024/01/16 04:01:33;;;;;;;3.87;2.80;;;;;20.40;99768.00;;;;2046799;28;20635;-58
2024/01/16 04:02:33;;;;;;;4.23;2.73;;;;;20.40;99766.00;;;;2042054;28;20638;-57
2024/01/16 04:03:34;;;;;;;5.47;2.70;;;;;20.40;99771.00;;;;2045560;28;20471;-57
2024/01/16 04:04:35;;;;;;;3.65;2.42;;;;;20.40;99769.00;;;;2048547;28;20209;-56
2024/01/16 04:05:35;;;;;;;4.30;2.60;;;;;20.40;99772.00;;;;2050174;28;20220;-57
2024/01/16 04:06:36;;;;;;;6.20;3.30;;;;;20.40;99770.00;;;;2048701;28;20208;-58
2024/01/16 04:07:36;;;;;;;3.73;2.40;;;;;20.40;99767.00;;;;2036411;28;20224;-56
2024/01/16 04:08:36;;;;;;;4.37;2.70;;;;;20.40;99775.00;;;;2060331;28;20235;-56
2024/01/16 04:09:37;;;;;;;4.93;2.80;;;;;20.40;99784.00;;;;2058735;28;20889;-54
2024/01/16 04:10:37;;;;;;;3.60;2.53;;;;;20.40;99774.00;;;;2049387;28;20611;-55
2024/01/16 04:11:37;;;;;;;3.67;2.50;;;;;20.40;99788.00;;;;2049216;28;21234;-57
2024/01/16 04:12:38;;;;;;;3.33;2.00;;;;;20.40;99775.00;;;;2033824;28;21417;-56
2024/01/16 04:13:38;;;;;;;4.00;2.77;;;;;20.40;99774.00;;;;2052946;28;20245;-57
2024/01/16 04:14:38;;;;;;;3.93;2.50;;;;;20.40;99770.00;;;;2055609;28;20228;-55
2024/01/16 04:15:39;;;;;;;3.50;2.13;;;;;20.40;99767.00;;;;2048988;28;20282;-55
2024/01/16 04:16:39;;;;;;;5.10;2.77;;;;;20.00;99761.00;;;;2051092;28;20283;-54
2024/01/16 04:17:39;;;;;;;4.10;2.73;;;;;20.40;99765.00;;;;2036890;28;20323;-55
2024/01/16 04:18:42;;;;;;;4.73;2.93;;;;;20.40;99760.00;;;;2056612;28;20230;-54
2024/01/16 04:19:43;;;;;;;4.75;2.75;;;;;20.40;99767.00;;;;2054914;28;20562;-57
2024/01/16 04:20:43;;;;;;;3.90;2.20;;;;;20.40;99767.00;;;;2048901;28;20234;-58
2024/01/16 04:21:43;;;;;;;3.27;2.17;;;;;20.40;99766.00;;;;2045699;28;20743;-54
2024/01/16 04:22:45;;;;;;;3.80;2.90;;;;;20.40;99763.00;;;;2038069;28;20223;-56
2024/01/16 04:23:45;;;;;;;3.78;2.45;;;;;20.30;99762.00;;;;2057667;28;20258;-57
2024/01/16 04:24:46;;;;;;;3.90;2.47;;;;;20.40;99759.00;;;;2056801;28;20350;-55
2024/01/16 04:25:47;;;;;;;3.45;2.25;;;;;20.40;99757.00;;;;2049149;28;20720;-59
2024/01/16 04:26:47;;;;;;;5.93;2.83;;;;;20.30;99761.00;;;;2045674;28;20244;-58
2024/01/16 04:27:48;;;;;;;4.20;2.87;;;;;20.30;99761.00;;;;2041358;28;20232;-55
2024/01/16 04:28:48;;;;;;;3.40;2.00;;;;;20.30;99760.00;;;;2053304;28;20235;-57
2024/01/16 04:29:48;;;;;;;3.60;2.80;;;;;20.30;99759.00;;;;2049037;28;20227;-56
2024/01/16 04:30:49;;;;;;;3.90;2.47;;;;;20.30;99766.00;;;;2046318;28;20277;-59
2024/01/16 04:31:49;;;;;;;3.60;2.50;;;;;20.30;99762.00;;;;2045235;28;20279;-54
2024/01/16 04:32:49;;;;;;;3.47;2.47;;;;;20.30;99765.00;;;;2034858;28;20256;-54
2024/01/16 04:33:50;;;;;;;3.20;2.63;;;;;20.30;99752.00;;;;2049445;28;20228;-57
2024/01/16 04:34:50;;;;;;;4.30;2.90;;;;;20.40;99753.00;;;;2046518;28;20967;-63
2024/01/16 04:35:50;;;;;;;3.13;2.10;;;;;20.30;99758.00;;;;2049499;28;20220;-57
2024/01/16 04:36:51;;;;;;;4.27;2.47;;;;;20.30;99751.00;;;;2048001;28;20650;-63
2024/01/16 04:37:51;;;;;;;4.50;2.50;;;;;20.30;99752.00;;;;2040449;28;20293;-60
2024/01/16 04:38:52;;;;;;;3.10;2.57;;;;;20.30;99746.00;;;;2045342;28;20231;-57
2024/01/16 04:39:54;;;;;;;5.03;3.17;;;;;20.30;99751.00;;;;2053199;28;20251;-57
2024/01/16 04:40:54;;;;;;;4.20;2.50;;;;;20.30;99751.00;;;;2049644;28;20267;-59
2024/01/16 04:41:54;;;;;;;3.77;2.50;;;;;20.30;99754.00;;;;2049528;28;20215;-57
2024/01/16 04:42:55;;;;;;;4.67;2.70;;;;;20.30;99753.00;;;;2037005;28;20232;-54
2024/01/16 04:43:55;;;;;;;3.77;2.50;;;;;20.30;99747.00;;;;2049599;28;20212;-56
2024/01/16 04:44:55;;;;;;;3.63;1.90;;;;;20.30;99755.00;;;;2053592;28;20297;-58
2024/01/16 04:45:56;;;;;;;3.70;2.50;;;;;20.30;99751.00;;;;2051232;28;20232;-56
2024/01/16 04:46:56;;;;;;;3.37;2.33;;;;;20.30;99750.00;;;;2045921;28;20748;-57
2024/01/16 04:47:56;;;;;;;5.43;2.40;;;;;20.30;99750.00;;;;2036217;28;20251;-57
2024/01/16 04:48:57;;;;;;;3.33;2.27;;;;;20.30;99755.00;;;;2050846;28;20238;-58
2024/01/16 04:49:57;;;;;;;3.63;2.17;;;;;20.30;99754.00;;;;2048778;28;20216;-55
2024/01/16 04:50:57;;;;;;;3.57;2.13;;;;;20.30;99751.00;;;;2048101;28;20311;-57
2024/01/16 04:51:58;;;;;;;3.37;1.97;;;;;20.30;99749.00;;;;2048134;28;20220;-58
2024/01/16 04:53:01;;;;;;;3.57;2.30;;;;;20.30;99744.00;;;;2034908;28;20236;-56
2024/01/16 04:54:02;;;;;;;3.75;2.42;;;;;20.30;99739.00;;;;2046757;28;20217;-57
2024/01/16 04:55:02;;;;;;;3.23;2.20;;;;;20.30;99749.00;;;;2045988;28;20598;-57
2024/01/16 04:56:02;;;;;;;2.87;2.00;;;;;20.30;99748.00;;;;2049187;28;20306;-58
2024/01/16 04:57:03;;;;;;;2.80;2.03;;;;;20.30;99744.00;;;;2048083;28;20212;-58
2024/01/16 04:58:03;;;;;;;4.13;2.53;;;;;20.20;99751.00;;;;2036182;28;20231;-55
2024/01/16 04:59:04;;;;;;;3.93;2.03;;;;;20.20;99742.00;;;;2053899;28;20220;-57
2024/01/16 05:00:06;;;;;;;4.10;2.07;;;;;20.30;99746.00;;;;2058695;28;20243;-57
2024/01/16 05:01:08;;;;;;;3.25;1.83;;;;;20.20;99744.00;;;;2054139;28;20255;-58